Toncontín International Airport
MHTG : now visible

Airfield :











YOU CAN JOIN US ON...

 
LOGIN :

Register | Disclaimer

   EN    FR    IT 

 









Legend :    VFR   Marginal VFR   IFR   Intensive IFR   Very Intensive IFR
Visi :
Ceiling :
>= 8 km
>= 3000ft
5 to 8 km
1000 to 3000 ft
1500m to 5 km
500 to 1000 ft
800 to 1500m
200 to 500 ft
< 800m
< 200 ft
Symbols :   Thunderstorms  Fog  Heavy snow  Heavy precipitations  Wind > 20 kt






- Airport Elevation : 3294 ft
- IATA code : TGU


MHTG - Toncontín International

CURRENT METAR :
  • 212000Z 03015KT 8000 VCSH FEW020 SCT028 22/15 Q1021 A3015 NOSIG

EXPIRED METARs :
  • 211900Z 03014KT 8000 VCSH FEW012 BKN026 21/16 Q1021 A3015 NOSIG
  • 211806Z 03012KT 8000 VCSH FEW012 BKN026 21/16 Q1022 A3018 NOSIG
  • 211800Z 04010KT 9999 FEW015 BKN026 20/15 Q1022 A3018 BECMG 7000 VCSH

TAF TAF MHTG
Valid from the 21 at 18:00 until the 22 at 18:00 UTC


211640Z 2118/2218 36012KT 8000 VCSH FEW018 BKN028 TX24/2119Z TN12/2212Z
BECMG 2120/2122 02010G20KT 9999 NSW SCT028
BECMG 2207/2209 36010KT 8000 FEW006 SCT026
BECMG 2213/2215 9999 SCT028



MET'MAP, your aeronautical weather chart ! - Copyright ORBIFLY December 2007 - Disclaimer

ORBIFLY MET'MAP TEAM :

Programming & Development : Alexandra Zaïnal
Concept & original design : Baudouin d'Aumeries
Assistance for programming : Marc-Olivier Méhu
Technical & hardware support : Manuel Goepfert

Contact : metmap@orbifly.com




SOURCES & CREDITS :

   NOAA       Earth
Advisory